createdAt,value
2018-03-18T00:00:21.558Z,15.23
2018-03-18T00:02:49.020Z,15.93
2018-03-18T00:05:16.492Z,16.10
2018-03-18T00:07:43.943Z,15.27
2018-03-18T00:10:11.615Z,15.80
2018-03-18T00:12:39.087Z,15.03
2018-03-18T00:15:06.634Z,16.87
2018-03-18T00:17:34.191Z,16.17
2018-03-18T00:20:02.678Z,16.97
2018-03-18T00:22:30.132Z,15.60
2018-03-18T00:24:57.682Z,15.30
2018-03-18T00:27:25.156Z,16.60
2018-03-18T00:29:52.706Z,14.70
2018-03-18T00:32:20.192Z,16.77
2018-03-18T00:34:47.634Z,14.77
2018-03-18T00:37:15.084Z,14.80
2018-03-18T00:39:42.641Z,14.13
2018-03-18T00:42:10.084Z,15.57
2018-03-18T00:44:37.570Z,15.23
2018-03-18T00:47:05.820Z,14.00
2018-03-18T00:49:33.286Z,14.77
2018-03-18T00:52:00.828Z,14.50
2018-03-18T00:54:28.282Z,15.40
2018-03-18T00:56:58.297Z,14.67
2018-03-18T00:59:25.774Z,12.80
2018-03-18T01:01:53.656Z,14.90
2018-03-18T01:04:21.911Z,13.77
2018-03-18T01:06:49.374Z,14.50
2018-03-18T01:09:16.838Z,14.17
2018-03-18T01:11:45.810Z,14.23
2018-03-18T01:14:13.265Z,13.47
2018-03-18T01:16:40.838Z,15.20
2018-03-18T01:19:08.301Z,15.27
2018-03-18T01:21:37.146Z,14.30
2018-03-18T01:24:05.006Z,13.80
2018-03-18T01:26:32.449Z,13.93
2018-03-18T01:28:59.910Z,14.63
2018-03-18T01:31:27.418Z,14.20
2018-03-18T01:33:57.212Z,14.80
2018-03-18T01:36:24.676Z,14.93
2018-03-18T01:38:52.365Z,14.53
2018-03-18T01:41:20.917Z,14.60
2018-03-18T01:43:48.834Z,15.97
2018-03-18T01:46:17.044Z,15.40
2018-03-18T01:48:44.921Z,16.37
2018-03-18T01:51:12.392Z,16.00
2018-03-18T01:53:39.943Z,14.80
2018-03-18T01:56:07.397Z,16.43
2018-03-18T01:58:34.862Z,16.77
2018-03-18T02:01:02.928Z,16.67
2018-03-18T02:03:30.924Z,16.30
2018-03-18T02:05:59.142Z,17.30
2018-03-18T02:08:26.593Z,18.20
2018-03-18T02:10:54.057Z,16.40
2018-03-18T02:13:21.545Z,17.20
2018-03-18T02:15:51.594Z,18.07
2018-03-18T02:18:19.812Z,17.43
2018-03-18T02:20:47.273Z,15.90
2018-03-18T02:23:14.740Z,16.57
2018-03-18T02:25:42.301Z,17.20
2018-03-18T02:28:10.185Z,17.60
2018-03-18T02:30:37.732Z,18.13
2018-03-18T02:33:05.297Z,18.13
2018-03-18T02:35:33.369Z,18.33
2018-03-18T02:38:00.916Z,18.23
2018-03-18T02:40:28.559Z,17.67
2018-03-18T02:42:56.004Z,17.50
2018-03-18T02:45:23.584Z,17.77
2018-03-18T02:47:51.045Z,18.00
2018-03-18T02:50:19.054Z,16.10
2018-03-18T02:52:46.502Z,16.30
2018-03-18T02:55:14.719Z,16.00
2018-03-18T02:57:42.176Z,15.43
2018-03-18T03:00:10.058Z,16.43
2018-03-18T03:02:37.514Z,16.73
2018-03-18T03:05:04.969Z,16.57
2018-03-18T03:07:32.702Z,15.83
2018-03-18T03:10:00.923Z,16.53
2018-03-18T03:12:29.796Z,16.33
2018-03-18T03:14:57.481Z,15.43
2018-03-18T03:17:25.918Z,15.23
2018-03-18T03:19:53.421Z,15.67
2018-03-18T03:22:21.344Z,15.73
2018-03-18T03:24:48.850Z,16.77
2018-03-18T03:27:16.845Z,15.70
2018-03-18T03:29:45.074Z,16.10
2018-03-18T03:32:12.525Z,15.90
2018-03-18T03:34:39.986Z,16.70
2018-03-18T03:37:07.436Z,15.90
2018-03-18T03:39:34.917Z,14.90
2018-03-18T03:42:03.353Z,15.20
2018-03-18T03:44:31.019Z,15.97
2018-03-18T03:46:58.774Z,16.17
2018-03-18T03:49:26.230Z,16.13
2018-03-18T03:51:53.692Z,16.73
2018-03-18T03:54:21.149Z,16.20
2018-03-18T03:56:48.648Z,15.27
2018-03-18T03:59:16.650Z,16.40
2018-03-18T04:01:44.885Z,14.83
2018-03-18T04:04:12.870Z,14.67
2018-03-18T04:06:41.840Z,13.23
2018-03-18T04:09:09.618Z,14.20
2018-03-18T04:11:37.077Z,15.03
2018-03-18T04:14:04.536Z,14.77
2018-03-18T04:16:31.996Z,16.17
2018-03-18T04:18:59.449Z,14.33
2018-03-18T04:21:26.904Z,14.00
2018-03-18T04:23:54.862Z,15.47
2018-03-18T04:26:22.729Z,14.37
2018-03-18T04:28:51.697Z,14.70
2018-03-18T04:31:19.281Z,14.20
2018-03-18T04:33:46.620Z,14.67
2018-03-18T04:36:14.530Z,15.30
2018-03-18T04:38:42.750Z,14.03
2018-03-18T04:41:10.421Z,14.40
2018-03-18T04:43:38.573Z,14.00
2018-03-18T04:46:06.070Z,14.33
2018-03-18T04:48:33.524Z,13.77
2018-03-18T04:51:00.978Z,14.20
2018-03-18T04:53:28.433Z,13.60
2018-03-18T04:55:55.889Z,12.70
2018-03-18T04:58:23.354Z,13.80
2018-03-18T05:00:50.809Z,13.97
2018-03-18T05:03:21.420Z,13.60
2018-03-18T05:05:48.890Z,14.40
2018-03-18T05:08:16.901Z,13.37
2018-03-18T05:10:44.945Z,13.97
2018-03-18T05:13:12.482Z,12.40
2018-03-18T05:15:39.941Z,13.63
2018-03-18T05:18:07.401Z,12.80
2018-03-18T05:20:34.864Z,14.50
2018-03-18T05:23:02.417Z,13.73
2018-03-18T05:25:30.793Z,14.30
2018-03-18T05:27:58.689Z,14.40
2018-03-18T05:30:26.942Z,12.50
2018-03-18T05:32:54.978Z,13.83
2018-03-18T05:35:22.433Z,13.00
2018-03-18T05:37:49.889Z,13.53
2018-03-18T05:40:17.341Z,12.70
2018-03-18T05:42:44.801Z,13.97
2018-03-18T05:45:14.095Z,12.47
2018-03-18T05:47:42.106Z,12.63
2018-03-18T05:50:09.655Z,13.57
2018-03-18T05:52:37.448Z,13.13
2018-03-18T05:55:04.902Z,12.70
2018-03-18T05:57:33.162Z,12.80
2018-03-18T06:00:00.626Z,12.53
2018-03-18T06:02:28.102Z,12.00
2018-03-18T06:04:56.317Z,10.67
2018-03-18T06:07:23.782Z,12.60
2018-03-18T06:09:51.349Z,13.00
2018-03-18T06:12:18.809Z,12.30
2018-03-18T06:14:46.263Z,11.73
2018-03-18T06:17:13.715Z,11.93
2018-03-18T06:19:41.190Z,12.47
2018-03-18T06:22:08.754Z,13.13
2018-03-18T06:24:36.677Z,13.37
2018-03-18T06:27:04.140Z,13.73
2018-03-18T06:29:31.872Z,11.57
2018-03-18T06:32:02.039Z,12.70
2018-03-18T06:34:29.908Z,13.43
2018-03-18T06:36:57.382Z,12.10
2018-03-18T06:39:27.298Z,14.70
2018-03-18T06:41:54.841Z,13.30
2018-03-18T06:44:22.398Z,15.87
2018-03-18T06:46:50.383Z,19.17
2018-03-18T06:49:17.834Z,13.97
2018-03-18T06:51:45.298Z,12.27
2018-03-18T06:54:13.083Z,13.30
2018-03-18T06:56:41.603Z,15.50
2018-03-18T06:59:09.056Z,17.17
2018-03-18T07:01:36.531Z,17.77
2018-03-18T07:04:04.010Z,14.77
2018-03-18T07:06:32.373Z,11.33
2018-03-18T07:08:59.933Z,18.27
2018-03-18T07:11:27.397Z,20.20
2018-03-18T07:13:54.958Z,14.03
2018-03-18T07:16:23.941Z,16.67
2018-03-18T07:18:51.505Z,17.17
2018-03-18T07:21:18.970Z,14.10
2018-03-18T07:23:46.805Z,12.37
2018-03-18T07:26:15.073Z,12.53
2018-03-18T07:28:42.526Z,10.97
2018-03-18T07:31:11.285Z,11.27
2018-03-18T07:33:40.098Z,11.60
2018-03-18T07:36:10.100Z,11.13
2018-03-18T07:38:38.467Z,11.17
2018-03-18T07:41:05.897Z,11.63
2018-03-18T07:43:34.122Z,9.53
2018-03-18T07:46:01.617Z,10.20
2018-03-18T07:48:29.556Z,10.47
2018-03-18T07:50:58.015Z,10.40
2018-03-18T07:53:25.483Z,9.97
2018-03-18T07:55:52.973Z,10.10
2018-03-18T07:58:20.504Z,11.27
2018-03-18T08:00:48.015Z,9.90
2018-03-18T08:03:17.512Z,9.13
2018-03-18T08:05:45.305Z,9.37
2018-03-18T08:08:13.603Z,10.23
2018-03-18T08:10:42.387Z,9.60
2018-03-18T08:13:09.877Z,9.30
2018-03-18T08:15:37.349Z,9.33
2018-03-18T08:18:06.333Z,9.27
2018-03-18T08:20:34.162Z,9.87
2018-03-18T08:23:02.066Z,9.27
2018-03-18T08:25:29.609Z,9.03
2018-03-18T08:27:57.118Z,8.77
2018-03-18T08:30:24.533Z,8.87
2018-03-18T08:32:52.432Z,9.60
2018-03-18T08:35:21.033Z,9.67
2018-03-18T08:37:48.468Z,8.73
2018-03-18T08:40:19.152Z,9.77
2018-03-18T08:42:48.527Z,9.13
2018-03-18T08:45:17.163Z,9.43
2018-03-18T08:47:44.613Z,8.90
2018-03-18T08:50:12.473Z,9.23
2018-03-18T08:52:40.742Z,9.53
2018-03-18T08:55:08.194Z,9.13
2018-03-18T08:57:35.665Z,9.07
2018-03-18T09:00:03.129Z,8.43
2018-03-18T09:02:31.158Z,9.00
2018-03-18T09:04:59.168Z,8.90
2018-03-18T09:07:26.714Z,9.07
2018-03-18T09:09:54.193Z,8.80
2018-03-18T09:12:24.205Z,7.60
2018-03-18T09:14:51.754Z,8.33
2018-03-18T09:17:21.785Z,8.80
2018-03-18T09:19:50.576Z,7.73
2018-03-18T09:22:19.536Z,8.93
2018-03-18T09:24:48.225Z,8.37
2018-03-18T09:27:15.677Z,8.03
2018-03-18T09:29:43.153Z,7.80
2018-03-18T09:32:11.217Z,7.73
2018-03-18T09:34:38.782Z,7.83
2018-03-18T09:37:06.254Z,7.93
2018-03-18T09:39:34.478Z,7.80
2018-03-18T09:42:02.355Z,7.40
2018-03-18T09:44:30.370Z,7.97
2018-03-18T09:46:59.126Z,8.07
2018-03-18T09:49:27.862Z,8.10
2018-03-18T09:51:58.643Z,7.77
2018-03-18T09:54:26.519Z,7.63
2018-03-18T09:56:53.978Z,7.93
2018-03-18T09:59:24.113Z,8.23
2018-03-18T10:01:51.569Z,7.93
2018-03-18T10:04:19.081Z,8.33
2018-03-18T10:06:46.558Z,9.47
2018-03-18T10:09:14.024Z,8.30
2018-03-18T10:11:41.938Z,7.47
2018-03-18T10:14:09.446Z,8.20
2018-03-18T10:16:37.228Z,8.53
2018-03-18T10:19:06.094Z,9.67
2018-03-18T10:21:33.655Z,8.17
2018-03-18T10:24:01.105Z,8.80
2018-03-18T10:26:28.656Z,7.47
2018-03-18T10:28:56.111Z,8.03
2018-03-18T10:31:23.590Z,7.77
2018-03-18T10:33:51.920Z,7.27
2018-03-18T10:36:19.366Z,8.27
2018-03-18T10:38:47.741Z,7.83
2018-03-18T10:41:15.195Z,7.80
2018-03-18T10:43:43.422Z,8.10
2018-03-18T10:46:10.877Z,8.00
2018-03-18T10:48:38.599Z,7.63
2018-03-18T10:51:06.112Z,7.67
2018-03-18T10:53:34.402Z,8.03
2018-03-18T10:56:01.886Z,7.83
2018-03-18T10:58:29.366Z,7.70
2018-03-18T11:01:02.690Z,7.97
2018-03-18T11:03:30.692Z,7.73
2018-03-18T11:05:58.931Z,7.87
2018-03-18T11:08:26.408Z,9.03
2018-03-18T11:10:54.354Z,7.80
2018-03-18T11:13:21.919Z,8.03
2018-03-18T11:15:49.388Z,8.07
2018-03-18T11:18:16.832Z,8.57
2018-03-18T11:20:44.277Z,8.53
2018-03-18T11:23:11.730Z,8.00
2018-03-18T11:25:39.203Z,8.43
2018-03-18T11:28:06.665Z,9.13
2018-03-18T11:30:34.113Z,8.33
2018-03-18T11:33:01.994Z,7.83
2018-03-18T11:35:29.905Z,7.50
2018-03-18T11:37:57.409Z,7.60
2018-03-18T11:40:25.638Z,8.13
2018-03-18T11:42:53.097Z,7.83
2018-03-18T11:45:21.062Z,7.67
2018-03-18T11:47:48.531Z,7.37
2018-03-18T11:50:16.026Z,8.33
2018-03-18T11:52:43.950Z,7.87
2018-03-18T11:55:11.790Z,7.03
2018-03-18T11:57:40.024Z,7.30
2018-03-18T12:00:08.446Z,6.60
2018-03-18T12:02:35.894Z,6.53
2018-03-18T12:05:04.118Z,7.20
2018-03-18T12:07:31.582Z,6.10
2018-03-18T12:09:59.300Z,6.60
2018-03-18T12:12:26.774Z,5.83
2018-03-18T12:14:54.274Z,6.57
2018-03-18T12:17:23.754Z,6.53
2018-03-18T12:19:51.697Z,6.10
2018-03-18T12:22:19.364Z,6.57
2018-03-18T12:24:49.345Z,7.17
2018-03-18T12:27:18.381Z,6.20
2018-03-18T12:29:45.857Z,6.13
2018-03-18T12:32:13.309Z,6.30
2018-03-18T12:34:41.512Z,5.97
2018-03-18T12:37:08.963Z,7.10
2018-03-18T12:39:48.453Z,6.77
2018-03-18T12:42:27.781Z,7.07
2018-03-18T12:44:55.239Z,6.23
2018-03-18T12:47:22.757Z,6.13
2018-03-18T12:49:51.478Z,6.03
2018-03-18T12:52:18.990Z,6.00
2018-03-18T12:54:46.437Z,9.77
2018-03-18T12:57:15.081Z,6.57
2018-03-18T12:59:42.543Z,6.43
2018-03-18T13:02:09.998Z,6.40
2018-03-18T13:04:37.484Z,6.83
2018-03-18T13:07:05.925Z,6.93
2018-03-18T13:09:33.388Z,6.73
2018-03-18T13:12:01.772Z,6.33
2018-03-18T13:14:29.229Z,6.33
2018-03-18T13:16:56.713Z,6.20
2018-03-18T13:19:24.181Z,7.03
2018-03-18T13:21:52.403Z,7.13
2018-03-18T13:24:21.247Z,6.47
2018-03-18T13:26:50.754Z,6.20
2018-03-18T13:29:19.409Z,6.00
2018-03-18T13:31:46.883Z,5.83
2018-03-18T13:34:14.454Z,6.43
2018-03-18T13:36:43.497Z,6.43
2018-03-18T13:39:10.954Z,6.03
2018-03-18T13:41:38.558Z,6.00
2018-03-18T13:44:06.825Z,6.10
2018-03-18T13:46:34.725Z,5.73
2018-03-18T13:49:02.970Z,5.70
2018-03-18T13:51:30.525Z,6.80
2018-03-18T13:53:57.969Z,6.30
2018-03-18T13:56:25.413Z,5.70
2018-03-18T13:58:52.897Z,6.40
2018-03-18T14:01:21.177Z,6.43
2018-03-18T14:03:48.634Z,5.97
2018-03-18T14:06:17.586Z,7.10
2018-03-18T14:08:45.041Z,6.93
2018-03-18T14:11:14.843Z,6.77
2018-03-18T14:13:43.165Z,7.70
2018-03-18T14:16:10.632Z,6.60
2018-03-18T14:18:38.990Z,6.40
2018-03-18T14:21:06.437Z,6.23
2018-03-18T14:23:33.937Z,6.37
2018-03-18T14:26:02.199Z,6.33
2018-03-18T14:28:29.629Z,7.17
2018-03-18T14:30:57.077Z,6.20
2018-03-18T14:33:25.381Z,5.97
2018-03-18T14:35:54.352Z,5.83
2018-03-18T14:38:22.007Z,6.40
2018-03-18T14:40:49.905Z,5.90
2018-03-18T14:43:18.706Z,6.03
2018-03-18T14:45:46.948Z,5.50
2018-03-18T14:48:15.243Z,6.27
2018-03-18T14:50:42.901Z,5.67
2018-03-18T14:53:11.173Z,6.30
2018-03-18T14:55:40.157Z,6.27
2018-03-18T14:58:07.605Z,5.53
2018-03-18T15:00:35.058Z,6.40
2018-03-18T15:03:02.950Z,5.77
2018-03-18T15:05:31.929Z,5.90
2018-03-18T15:07:59.390Z,6.07
2018-03-18T15:10:27.449Z,6.13
2018-03-18T15:12:55.383Z,5.10
2018-03-18T15:15:23.381Z,5.93
2018-03-18T15:17:50.825Z,6.20
2018-03-18T15:20:18.308Z,6.43
2018-03-18T15:22:45.753Z,7.13
2018-03-18T15:25:13.209Z,6.10
2018-03-18T15:27:40.663Z,7.07
2018-03-18T15:30:08.108Z,6.60
2018-03-18T15:32:35.566Z,6.73
2018-03-18T15:35:03.014Z,6.60
2018-03-18T15:37:30.501Z,6.67
2018-03-18T15:39:57.954Z,6.27
2018-03-18T15:42:25.417Z,6.50
2018-03-18T15:44:52.899Z,6.47
2018-03-18T15:47:21.109Z,6.77
2018-03-18T15:49:49.569Z,6.53
2018-03-18T15:52:17.024Z,6.60
2018-03-18T15:54:44.641Z,5.30
2018-03-18T15:57:12.265Z,6.10
2018-03-18T15:59:39.761Z,6.37
2018-03-18T16:02:07.161Z,5.30
2018-03-18T16:04:34.681Z,5.93
2018-03-18T16:07:02.246Z,6.57
2018-03-18T16:09:29.991Z,5.50
2018-03-18T16:11:57.453Z,5.90
2018-03-18T16:14:24.907Z,6.10
2018-03-18T16:16:52.366Z,6.13
2018-03-18T16:19:19.866Z,5.97
2018-03-18T16:21:48.262Z,6.10
2018-03-18T16:24:15.755Z,7.90
2018-03-18T16:26:43.310Z,8.50
2018-03-18T16:29:23.638Z,11.27
2018-03-18T16:31:51.081Z,9.20
2018-03-18T16:34:18.555Z,7.20
2018-03-18T16:36:46.433Z,6.80
2018-03-18T16:39:13.924Z,8.20
2018-03-18T16:41:41.967Z,7.67
2018-03-18T16:44:09.388Z,7.07
2018-03-18T16:46:36.854Z,6.53
2018-03-18T16:49:04.714Z,7.77
2018-03-18T16:51:32.169Z,6.13
2018-03-18T16:53:59.618Z,5.83
2018-03-18T16:56:27.082Z,8.10
2018-03-18T16:58:54.590Z,7.93
2018-03-18T17:01:22.075Z,5.80
2018-03-18T17:03:50.047Z,7.43
2018-03-18T17:06:19.258Z,5.80
2018-03-18T17:08:46.707Z,8.77
2018-03-18T17:11:14.183Z,5.90
2018-03-18T17:13:41.797Z,8.20
2018-03-18T17:16:10.029Z,8.67
2018-03-18T17:18:38.092Z,6.63
2018-03-18T17:21:05.546Z,6.37
2018-03-18T17:23:33.102Z,6.40
2018-03-18T17:26:00.601Z,6.87
2018-03-18T17:28:28.090Z,7.00
2018-03-18T17:30:56.321Z,7.07
2018-03-18T17:33:23.788Z,5.50
2018-03-18T17:35:51.237Z,5.70
2018-03-18T17:38:18.694Z,6.13
2018-03-18T17:40:46.729Z,6.20
2018-03-18T17:43:14.225Z,6.20
2018-03-18T17:45:53.601Z,5.47
2018-03-18T17:48:33.607Z,5.00
2018-03-18T17:51:13.065Z,5.30
2018-03-18T17:53:53.310Z,5.30
2018-03-18T17:56:32.842Z,5.33
2018-03-18T17:59:00.404Z,5.90
2018-03-18T18:01:27.853Z,5.93
2018-03-18T18:03:55.320Z,4.53
2018-03-18T18:06:22.777Z,4.83
2018-03-18T18:08:51.234Z,5.33
2018-03-18T18:11:18.720Z,5.00
2018-03-18T18:13:46.181Z,5.77
2018-03-18T18:16:13.633Z,5.20
2018-03-18T18:18:41.858Z,5.07
2018-03-18T18:21:09.349Z,5.60
2018-03-18T18:23:36.803Z,5.20
2018-03-18T18:26:04.262Z,5.80
2018-03-18T18:28:32.278Z,5.03
2018-03-18T18:30:59.737Z,6.00
2018-03-18T18:33:27.254Z,5.33
2018-03-18T18:35:55.336Z,4.97
2018-03-18T18:38:23.570Z,4.93
2018-03-18T18:40:52.386Z,4.70
2018-03-18T18:43:19.889Z,5.37
2018-03-18T18:45:48.642Z,5.20
2018-03-18T18:48:17.622Z,4.57
2018-03-18T18:50:45.078Z,5.33
2018-03-18T18:53:12.541Z,4.93
2018-03-18T18:55:40.887Z,5.23
2018-03-18T18:58:08.381Z,5.33
2018-03-18T19:00:35.830Z,5.33
2018-03-18T19:03:03.435Z,4.77
2018-03-18T19:05:30.830Z,4.93
2018-03-18T19:07:58.459Z,4.90
2018-03-18T19:10:25.893Z,5.63
2018-03-18T19:12:53.473Z,5.07
2018-03-18T19:15:21.788Z,5.07
2018-03-18T19:17:49.779Z,4.67
2018-03-18T19:20:17.225Z,4.83
2018-03-18T19:22:45.450Z,4.73
2018-03-18T19:25:13.009Z,5.07
2018-03-18T19:27:40.599Z,4.80
2018-03-18T19:30:08.741Z,4.57
2018-03-18T19:32:36.657Z,4.27
2018-03-18T19:35:04.109Z,4.73
2018-03-18T19:37:31.560Z,4.97
2018-03-18T19:39:59.018Z,4.80
2018-03-18T19:42:26.572Z,4.57
2018-03-18T19:44:54.197Z,5.03
2018-03-18T19:47:21.970Z,4.63
2018-03-18T19:49:49.731Z,4.77
2018-03-18T19:52:17.321Z,5.17
2018-03-18T19:54:44.875Z,4.87
2018-03-18T19:57:12.635Z,5.40
2018-03-18T19:59:40.097Z,4.77
2018-03-18T20:02:07.570Z,8.27
2018-03-18T20:04:35.795Z,5.80
2018-03-18T20:07:03.255Z,5.07
2018-03-18T20:09:30.705Z,5.17
2018-03-18T20:11:58.158Z,5.90
2018-03-18T20:14:26.027Z,5.77
2018-03-18T20:16:53.533Z,5.30
2018-03-18T20:19:20.997Z,5.77
2018-03-18T20:21:49.212Z,5.50
2018-03-18T20:24:16.722Z,5.03
2018-03-18T20:26:44.169Z,5.80
2018-03-18T20:29:11.625Z,4.77
2018-03-18T20:31:39.078Z,4.77
2018-03-18T20:34:06.598Z,5.30
2018-03-18T20:36:34.096Z,4.83
2018-03-18T20:39:01.727Z,6.50
2018-03-18T20:41:29.196Z,7.20
2018-03-18T20:43:56.774Z,5.77
2018-03-18T20:46:25.011Z,5.80
2018-03-18T20:48:52.484Z,5.57
2018-03-18T20:51:20.761Z,6.27
2018-03-18T20:53:48.416Z,5.93
2018-03-18T20:56:16.059Z,6.13
2018-03-18T20:58:43.514Z,5.47
2018-03-18T21:01:10.986Z,7.63
2018-03-18T21:03:38.445Z,5.50
2018-03-18T21:06:05.906Z,7.27
2018-03-18T21:08:33.649Z,6.30
2018-03-18T21:11:01.326Z,5.50
2018-03-18T21:13:28.779Z,7.23
2018-03-18T21:15:56.497Z,6.80
2018-03-18T21:18:24.941Z,5.60
2018-03-18T21:20:52.402Z,6.30
2018-03-18T21:23:20.777Z,6.10
2018-03-18T21:25:48.814Z,6.23
2018-03-18T21:28:17.225Z,6.00
2018-03-18T21:30:44.674Z,5.97
2018-03-18T21:33:13.123Z,6.47
2018-03-18T21:35:40.627Z,5.97
2018-03-18T21:38:08.205Z,6.30
2018-03-18T21:40:36.458Z,6.07
2018-03-18T21:43:03.918Z,4.83
2018-03-18T21:45:31.365Z,5.63
2018-03-18T21:47:58.813Z,5.20
2018-03-18T21:50:26.678Z,4.90
2018-03-18T21:52:55.441Z,4.70
2018-03-18T21:55:22.935Z,5.37
2018-03-18T21:57:50.390Z,4.70
2018-03-18T22:00:17.833Z,4.60
2018-03-18T22:02:46.112Z,3.73
2018-03-18T22:05:13.996Z,4.63
2018-03-18T22:07:41.438Z,4.70
2018-03-18T22:10:08.892Z,4.60
2018-03-18T22:12:36.349Z,4.60
2018-03-18T22:15:03.858Z,4.10
2018-03-18T22:17:33.170Z,4.10
2018-03-18T22:20:00.618Z,5.07
2018-03-18T22:22:28.130Z,4.67
2018-03-18T22:24:55.681Z,4.67
2018-03-18T22:27:23.242Z,4.33
2018-03-18T22:29:51.233Z,4.57
2018-03-18T22:32:19.453Z,4.83
2018-03-18T22:34:47.321Z,4.87
2018-03-18T22:37:14.807Z,4.93
2018-03-18T22:39:42.789Z,4.70
2018-03-18T22:42:11.425Z,4.43
2018-03-18T22:44:39.001Z,5.00
2018-03-18T22:47:06.469Z,4.50
2018-03-18T22:49:33.925Z,5.27
2018-03-18T22:52:01.374Z,5.03
2018-03-18T22:54:28.839Z,5.27
2018-03-18T22:56:56.321Z,4.83
2018-03-18T22:59:25.022Z,5.00
2018-03-18T23:01:53.262Z,4.40
2018-03-18T23:04:20.710Z,5.10
2018-03-18T23:06:48.164Z,4.93
2018-03-18T23:09:15.630Z,5.57
2018-03-18T23:11:43.076Z,5.03
2018-03-18T23:14:10.545Z,5.30
2018-03-18T23:16:38.110Z,5.00
2018-03-18T23:19:05.665Z,5.07
2018-03-18T23:21:33.399Z,5.37
2018-03-18T23:24:01.465Z,5.70
2018-03-18T23:26:28.954Z,4.80
2018-03-18T23:28:56.401Z,5.00
2018-03-18T23:31:23.866Z,5.30
2018-03-18T23:33:51.334Z,5.33
2018-03-18T23:36:19.425Z,4.97
2018-03-18T23:38:48.306Z,5.50
2018-03-18T23:41:17.337Z,5.40
2018-03-18T23:43:44.833Z,5.97
2018-03-18T23:46:13.062Z,5.20
2018-03-18T23:48:40.521Z,5.00
2018-03-18T23:51:08.592Z,4.67
2018-03-18T23:53:36.037Z,5.40
2018-03-18T23:56:03.496Z,5.17
2018-03-18T23:58:30.970Z,5.10
